Time;durP1;ratioP1;P1;durP2;ratioP2;P2;SDS_P1;SDS_P2;PMS_P1;PMS_P2;Temp;Humidity;BMP_temperature;BMP_pressure;BME280_temperature;BME280_humidity;BME280_pressure;Samples;Min_cycle;Max_cycle;Signal;HPM_P1;HPM_P2
2021/12/23 00:01:38;;;;;;;6.40;5.90;;;;;;;-1.65;52.63;95797.03;5095998;28;20180;-64
2021/12/23 00:04:05;;;;;;;6.70;6.10;;;;;;;-1.69;52.63;95801.34;5096048;28;20184;-63
2021/12/23 00:06:32;;;;;;;6.28;5.80;;;;;;;-1.72;52.94;95799.13;5095034;28;20196;-63
2021/12/23 00:09:00;;;;;;;8.38;7.68;;;;;;;-1.72;53.36;95791.84;5095738;28;20188;-63
2021/12/23 00:11:28;;;;;;;12.32;11.23;;;;;;;-1.82;54.52;95799.84;5094588;28;20220;-63
2021/12/23 00:14:02;;;;;;;12.55;11.25;;;;;;;-1.95;54.78;95800.28;5095137;28;20209;-63
2021/12/23 00:16:41;;;;;;;12.20;11.07;;;;;;;-2.11;55.34;95790.38;5095071;28;20215;-64
2021/12/23 00:19:19;;;;;;;11.48;10.27;;;;;;;-2.21;55.40;95796.53;5095041;28;20616;-63
2021/12/23 00:24:32;;;;;;;9.93;9.07;;;;;;;-2.35;56.06;95788.00;5094854;28;20249;-63
2021/12/23 00:26:59;;;;;;;11.20;10.10;;;;;;;-2.41;55.80;95797.09;5095484;28;20181;-63
2021/12/23 00:29:26;;;;;;;10.73;9.73;;;;;;;-2.42;56.46;95796.28;5095672;28;20181;-63
2021/12/23 00:31:52;;;;;;;10.82;9.82;;;;;;;-2.40;56.24;95796.03;5094367;28;20215;-63
2021/12/23 00:34:19;;;;;;;10.25;9.32;;;;;;;-2.37;55.96;95802.81;5095640;28;20204;-64
2021/12/23 00:36:46;;;;;;;9.95;9.05;;;;;;;-2.35;56.23;95800.69;5094713;28;20195;-64
2021/12/23 00:39:14;;;;;;;10.32;9.38;;;;;;;-2.37;56.52;95806.34;5095269;28;20204;-64
2021/12/23 00:41:44;;;;;;;9.63;8.82;;;;;;;-2.39;56.45;95800.38;5094959;28;20255;-64
2021/12/23 00:44:11;;;;;;;8.90;8.00;;;;;;;-2.35;55.87;95806.09;5094141;28;20208;-64
2021/12/23 00:46:38;;;;;;;6.45;5.95;;;;;;;-2.29;55.13;95805.06;5095371;28;20191;-64
2021/12/23 00:49:06;;;;;;;6.05;5.55;;;;;;;-2.29;54.75;95799.66;5094075;28;20203;-64
2021/12/23 00:51:33;;;;;;;6.25;5.55;;;;;;;-2.33;54.63;95802.06;5094885;28;20204;-64
2021/12/23 00:54:04;;;;;;;6.25;5.75;;;;;;;-2.35;54.40;95793.41;5099090;28;20211;-64
2021/12/23 00:56:32;;;;;;;6.90;6.30;;;;;;;-2.40;54.15;95787.94;5098285;28;20228;-64
2021/12/23 00:59:00;;;;;;;7.20;6.60;;;;;;;-2.40;54.41;95787.13;5099301;28;20188;-64
2021/12/23 01:01:27;;;;;;;6.97;6.38;;;;;;;-2.41;54.48;95780.91;5099328;28;20172;-64
2021/12/23 01:03:54;;;;;;;7.38;6.78;;;;;;;-2.44;54.04;95781.41;5099303;28;20184;-64
2021/12/23 01:06:21;;;;;;;8.63;7.03;;;;;;;-2.49;54.47;95776.75;5098105;28;20210;-64
2021/12/23 01:08:47;;;;;;;8.30;7.60;;;;;;;-2.55;54.87;95776.97;5098306;28;20200;-64
2021/12/23 01:11:14;;;;;;;9.25;8.45;;;;;;;-2.63;54.89;95782.81;5099020;28;20526;-64
2021/12/23 01:13:48;;;;;;;8.10;7.40;;;;;;;-2.60;55.03;95777.72;5098402;28;20295;-64
2021/12/23 01:16:36;;;;;;;7.20;6.50;;;;;;;-2.57;54.79;95779.09;5099091;28;20203;-64
2021/12/23 01:19:11;;;;;;;6.90;6.28;;;;;;;-2.59;54.79;95783.94;5097835;28;20200;-64
2021/12/23 01:21:37;;;;;;;6.80;6.30;;;;;;;-2.60;54.56;95776.91;5099260;28;20176;-64
2021/12/23 01:24:05;;;;;;;7.30;6.60;;;;;;;-2.66;54.68;95776.03;5098933;28;20189;-64
2021/12/23 01:26:31;;;;;;;6.68;6.07;;;;;;;-2.73;55.13;95781.59;5098903;28;20194;-64
2021/12/23 01:28:59;;;;;;;6.70;6.10;;;;;;;-2.74;54.80;95777.28;5097900;28;20193;-64
2021/12/23 01:31:29;;;;;;;6.88;6.28;;;;;;;-2.78;54.47;95773.47;5097442;28;20632;-64
2021/12/23 01:33:56;;;;;;;7.15;6.50;;;;;;;-2.81;55.09;95765.84;5097770;28;20196;-63
2021/12/23 01:36:24;;;;;;;7.10;6.50;;;;;;;-2.84;55.06;95766.34;5097939;28;20197;-63
2021/12/23 01:38:51;;;;;;;7.72;7.03;;;;;;;-2.80;55.08;95764.78;5098609;28;20180;-64
2021/12/23 01:41:19;;;;;;;9.27;8.35;;;;;;;-2.78;55.38;95770.75;5097373;28;20207;-64
2021/12/23 01:43:46;;;;;;;11.52;10.32;;;;;;;-2.79;56.02;95766.44;5097777;28;20204;-64
2021/12/23 01:46:12;;;;;;;11.50;10.40;;;;;;;-2.81;56.07;95755.06;5098578;28;20184;-64
2021/12/23 01:48:41;;;;;;;15.30;13.70;;;;;;;-2.88;56.42;95757.13;5097628;28;20200;-64
2021/12/23 01:51:07;;;;;;;17.42;15.63;;;;;;;-2.96;56.65;95747.59;5097406;28;20211;-64
2021/12/23 01:53:34;;;;;;;17.23;15.43;;;;;;;-3.05;56.75;95753.66;5098192;28;20224;-64
2021/12/23 01:56:01;;;;;;;17.52;15.25;;;;;;;-3.16;56.86;95750.84;5097455;28;20202;-64
2021/12/23 01:58:28;;;;;;;17.42;15.63;;;;;;;-3.19;56.85;95755.94;5098366;28;20180;-63
2021/12/23 02:00:55;;;;;;;22.50;19.25;;;;;;;-3.25;57.19;95755.03;5098222;28;20184;-63
2021/12/23 02:03:22;;;;;;;21.77;19.42;;;;;;;-3.33;57.17;95760.88;5096821;28;20204;-63
2021/12/23 02:05:50;;;;;;;22.75;19.25;;;;;;;-3.35;57.22;95764.88;5097214;28;20534;-63
2021/12/23 02:08:17;;;;;;;21.95;18.58;;;;;;;-3.35;57.37;95763.00;5098014;28;20191;-63
2021/12/23 02:10:44;;;;;;;20.40;18.17;;;;;;;-3.37;57.57;95765.13;5097272;28;20200;-63
2021/12/23 02:13:11;;;;;;;20.48;17.23;;;;;;;-3.37;57.26;95770.53;5097474;28;20580;-63
2021/12/23 02:15:38;;;;;;;18.10;16.30;;;;;;;-3.42;57.26;95773.13;5097697;28;20180;-63
2021/12/23 02:18:05;;;;;;;17.65;15.95;;;;;;;-3.49;57.79;95780.59;5097844;28;20204;-63
2021/12/23 02:20:35;;;;;;;14.95;13.55;;;;;;;-3.55;57.26;95776.19;5096585;28;20200;-63
2021/12/23 02:23:02;;;;;;;15.55;14.10;;;;;;;-3.62;57.37;95779.06;5097670;28;20196;-63
2021/12/23 02:25:29;;;;;;;14.98;13.57;;;;;;;-3.65;57.57;95783.06;5097214;28;20196;-63
2021/12/23 02:27:57;;;;;;;18.80;17.02;;;;;;;-3.72;58.06;95776.19;5097410;28;20654;-63
2021/12/23 02:30:27;;;;;;;26.80;24.10;;;;;;;-3.72;58.14;95792.38;5097676;28;20214;-63
2021/12/23 02:32:54;;;;;;;21.48;19.42;;;;;;;-3.72;57.48;95782.41;5097467;28;20200;-63
2021/12/23 02:35:23;;;;;;;21.70;19.65;;;;;;;-3.77;58.12;95776.94;5097520;28;20189;-63
2021/12/23 02:37:51;;;;;;;21.65;19.65;;;;;;;-3.84;58.13;95781.69;5096213;28;20230;-63
2021/12/23 02:40:29;;;;;;;22.63;20.38;;;;;;;-3.87;58.32;95782.97;5097561;28;20520;-63
2021/12/23 02:42:57;;;;;;;24.75;21.98;;;;;;;-3.85;58.68;95779.22;5097344;28;20184;-63
2021/12/23 02:45:24;;;;;;;24.83;22.33;;;;;;;-3.91;58.76;95781.84;5097115;28;20193;-63
2021/12/23 02:47:50;;;;;;;23.95;21.55;;;;;;;-3.92;58.65;95782.09;5096994;28;20193;-63
2021/12/23 02:50:17;;;;;;;22.52;20.30;;;;;;;-3.97;58.54;95779.28;5096090;28;20204;-63
2021/12/23 02:52:44;;;;;;;22.63;20.42;;;;;;;-4.06;58.97;95773.50;5096212;28;20224;-63
2021/12/23 02:55:12;;;;;;;22.35;20.15;;;;;;;-4.09;59.27;95771.28;5096090;28;20215;-63
2021/12/23 02:57:39;;;;;;;23.42;21.23;;;;;;;-4.11;59.31;95776.09;5096694;28;20224;-63
2021/12/23 03:00:08;;;;;;;22.27;20.23;;;;;;;-4.18;59.39;95768.16;5096121;28;20529;-64
2021/12/23 03:02:38;;;;;;;20.15;18.33;;;;;;;-4.15;59.55;95762.28;5096816;28;20264;-63
2021/12/23 03:05:05;;;;;;;21.00;19.00;;;;;;;-4.11;59.89;95766.13;5095660;28;20196;-64
2021/12/23 03:07:32;;;;;;;20.63;18.63;;;;;;;-4.07;59.36;95758.38;5096931;28;20206;-64
2021/12/23 03:09:59;;;;;;;19.80;17.95;;;;;;;-4.15;59.64;95764.16;5096814;28;20207;-64
2021/12/23 03:12:27;;;;;;;20.48;18.67;;;;;;;-4.13;59.52;95756.69;5096829;28;20212;-64
2021/12/23 03:14:54;;;;;;;21.92;19.90;;;;;;;-4.12;59.79;95755.59;5094968;28;20501;-64
2021/12/23 03:17:21;;;;;;;24.25;22.05;;;;;;;-4.11;59.59;95752.66;5095873;28;20200;-64
2021/12/23 03:19:48;;;;;;;24.02;21.73;;;;;;;-4.07;59.52;95758.38;5096739;28;20258;-64
2021/12/23 03:22:15;;;;;;;24.98;22.48;;;;;;;-4.07;59.47;95749.47;5096391;28;20177;-64
2021/12/23 03:24:42;;;;;;;28.17;25.35;;;;;;;-4.07;59.37;95749.47;5096275;28;20528;-64
2021/12/23 03:27:08;;;;;;;29.67;26.67;;;;;;;-4.04;59.79;95751.69;5096213;28;20211;-64
2021/12/23 03:29:37;;;;;;;28.27;25.38;;;;;;;-4.09;59.65;95749.72;5095602;28;20195;-64
2021/12/23 03:32:04;;;;;;;32.38;29.08;;;;;;;-4.17;60.00;95750.97;5095686;28;20185;-64
2021/12/23 03:34:31;;;;;;;35.00;31.48;;;;;;;-4.27;60.26;95750.78;5096328;28;20195;-64
2021/12/23 03:36:58;;;;;;;37.65;33.70;;;;;;;-4.37;60.39;95748.72;5096391;28;20172;-64
2021/12/23 03:39:24;;;;;;;36.22;32.42;;;;;;;-4.41;61.00;95750.25;5096258;28;20226;-64
2021/12/23 03:41:51;;;;;;;36.80;33.05;;;;;;;-4.46;60.66;95752.88;5095943;28;20204;-64
2021/12/23 03:44:18;;;;;;;39.97;35.88;;;;;;;-4.45;61.30;95762.56;5096145;28;20181;-64
2021/12/23 03:46:46;;;;;;;42.42;38.03;;;;;;;-4.41;60.62;95763.72;5096073;28;20207;-64
2021/12/23 03:49:13;;;;;;;45.70;41.00;;;;;;;-4.41;60.49;95763.72;5094838;28;20196;-64
2021/12/23 03:51:40;;;;;;;50.13;44.88;;;;;;;-4.39;61.28;95768.88;5095375;28;20192;-64
2021/12/23 03:54:07;;;;;;;53.13;47.72;;;;;;;-4.38;60.97;95765.13;5094865;28;20227;-64
2021/12/23 03:56:33;;;;;;;51.15;45.88;;;;;;;-4.37;61.08;95764.06;5095753;28;20247;-64
2021/12/23 03:59:00;;;;;;;53.33;47.72;;;;;;;-4.33;61.25;95761.69;5095898;28;20192;-64
2021/12/23 04:01:29;;;;;;;52.83;47.40;;;;;;;-4.31;60.91;95768.47;5095932;28;20199;-64
2021/12/23 04:03:58;;;;;;;54.35;48.88;;;;;;;-4.34;60.88;95765.47;5095841;28;20190;-64
2021/12/23 04:06:26;;;;;;;53.08;47.60;;;;;;;-4.36;61.27;95771.91;5095057;28;20320;-64
2021/12/23 04:08:54;;;;;;;55.25;49.60;;;;;;;-4.36;60.99;95771.06;5094853;28;20204;-64
2021/12/23 04:11:21;;;;;;;54.03;48.53;;;;;;;-4.32;60.78;95774.09;5095732;28;20189;-64
2021/12/23 04:13:48;;;;;;;51.55;46.40;;;;;;;-4.31;60.59;95775.75;5095345;28;20269;-64
2021/12/23 04:16:15;;;;;;;50.65;45.53;;;;;;;-4.27;60.87;95771.50;5095088;28;20204;-64
2021/12/23 04:18:45;;;;;;;53.58;48.20;;;;;;;-4.26;60.72;95778.53;5095514;28;20184;-64
2021/12/23 04:21:14;;;;;;;52.67;47.47;;;;;;;-4.30;61.05;95770.13;5095527;28;20185;-64
2021/12/23 04:23:43;;;;;;;51.50;46.45;;;;;;;-4.34;61.05;95776.22;5095950;28;20231;-64
2021/12/23 04:26:09;;;;;;;50.78;45.70;;;;;;;-4.36;60.83;95777.31;5095431;28;20188;-64
2021/12/23 04:28:45;;;;;;;51.03;45.90;;;;;;;-4.40;60.70;95780.69;5095483;28;20203;-64
2021/12/23 04:31:12;;;;;;;52.38;47.20;;;;;;;-4.39;61.00;95779.66;5095536;28;20172;-64
2021/12/23 04:33:39;;;;;;;50.50;45.33;;;;;;;-4.39;61.24;95776.97;5095462;28;20201;-64
2021/12/23 04:36:08;;;;;;;52.17;46.97;;;;;;;-4.41;61.07;95777.19;5095333;28;20191;-64
2021/12/23 04:38:37;;;;;;;50.38;45.40;;;;;;;-4.45;60.88;95772.53;5095327;28;20242;-64
2021/12/23 04:41:04;;;;;;;51.35;46.25;;;;;;;-4.47;61.02;95770.06;5095696;28;20214;-64
2021/12/23 04:43:31;;;;;;;51.22;46.25;;;;;;;-4.44;61.03;95772.28;5095296;28;20188;-64
2021/12/23 04:45:58;;;;;;;50.63;45.50;;;;;;;-4.47;60.81;95775.44;5095335;28;20200;-64
2021/12/23 04:48:24;;;;;;;51.83;46.72;;;;;;;-4.52;60.75;95775.38;5093985;28;20223;-64
2021/12/23 04:50:51;;;;;;;52.55;47.53;;;;;;;-4.53;60.91;95771.06;5095287;28;20196;-64
2021/12/23 04:53:18;;;;;;;54.55;49.13;;;;;;;-4.56;60.99;95773.41;5095123;28;20227;-64
2021/12/23 04:55:46;;;;;;;56.28;50.85;;;;;;;-4.60;61.09;95767.69;5094695;28;20200;-64
2021/12/23 04:58:13;;;;;;;55.92;50.63;;;;;;;-4.57;61.48;95785.25;5095094;28;20223;-64
2021/12/23 05:00:42;;;;;;;59.42;53.70;;;;;;;-4.57;61.05;95794.13;5095116;28;20635;-64
2021/12/23 05:03:09;;;;;;;60.08;54.10;;;;;;;-4.58;61.36;95788.97;5094164;28;20216;-64
2021/12/23 05:05:36;;;;;;;68.13;61.22;;;;;;;-4.63;61.38;95795.09;5095475;28;20191;-63
2021/12/23 05:08:04;;;;;;;81.43;73.40;;;;;;;-4.62;60.98;95791.31;5094955;28;20238;-64
2021/12/23 05:10:30;;;;;;;74.50;67.03;;;;;;;-4.61;61.17;95788.41;5095099;28;20184;-64
2021/12/23 05:12:59;;;;;;;74.25;66.90;;;;;;;-4.58;61.52;95786.28;5093994;28;20222;-64
2021/12/23 05:15:26;;;;;;;67.03;60.33;;;;;;;-4.58;61.29;95779.00;5095149;28;20196;-64
2021/12/23 05:17:53;;;;;;;59.60;53.92;;;;;;;-4.57;61.34;95779.84;5094002;28;20207;-64
2021/12/23 05:20:20;;;;;;;52.22;47.13;;;;;;;-4.60;61.22;95783.84;5093755;28;20196;-67
2021/12/23 05:22:47;;;;;;;50.88;46.08;;;;;;;-4.58;61.63;95787.09;5093987;28;20203;-64
2021/12/23 05:25:15;;;;;;;48.70;44.00;;;;;;;-4.55;61.59;95783.09;5094766;28;20181;-68
2021/12/23 05:27:42;;;;;;;42.67;38.67;;;;;;;-4.57;61.20;95779.84;5095014;28;20199;-67
2021/12/23 05:30:12;;;;;;;43.55;39.55;;;;;;;-4.58;61.23;95781.72;5093298;28;20870;-65
2021/12/23 05:32:41;;;;;;;35.50;32.10;;;;;;;-4.52;61.31;95777.25;5093656;28;20287;-64
2021/12/23 05:35:09;;;;;;;31.80;28.98;;;;;;;-4.49;61.18;95779.47;5093757;28;20287;-65
2021/12/23 05:37:36;;;;;;;30.40;27.50;;;;;;;-4.46;61.14;95782.50;5093812;28;20200;-65
2021/12/23 05:40:03;;;;;;;40.08;36.20;;;;;;;-4.50;60.84;95778.66;5097929;28;20354;-65
2021/12/23 05:42:30;;;;;;;39.72;36.05;;;;;;;-4.57;61.32;95786.06;5098018;28;20207;-65
2021/12/23 05:44:57;;;;;;;42.95;39.05;;;;;;;-4.64;61.20;95794.28;5097349;28;20198;-67
2021/12/23 05:47:25;;;;;;;42.75;38.85;;;;;;;-4.70;61.60;95794.41;5098392;28;20189;-67
2021/12/23 05:49:52;;;;;;;41.50;37.53;;;;;;;-4.71;61.72;95782.81;5098498;28;20214;-67
2021/12/23 05:52:19;;;;;;;46.40;41.88;;;;;;;-4.67;61.68;95791.25;5097546;28;20192;-64
2021/12/23 05:54:45;;;;;;;50.25;45.35;;;;;;;-4.70;62.13;95794.41;5098539;28;20220;-68
2021/12/23 05:57:12;;;;;;;52.70;47.80;;;;;;;-4.70;62.35;95791.72;5098204;28;20235;-64
2021/12/23 05:59:39;;;;;;;54.05;48.92;;;;;;;-4.68;61.92;95784.22;5097344;28;20192;-65
2021/12/23 06:02:06;;;;;;;51.95;46.95;;;;;;;-4.65;61.69;95783.72;5097389;28;20197;-65
2021/12/23 06:04:35;;;;;;;52.63;47.58;;;;;;;-4.70;61.55;95786.31;5097597;28;20199;-65
2021/12/23 06:07:02;;;;;;;67.63;61.30;;;;;;;-4.74;61.82;95790.56;5098262;28;20185;-65
2021/12/23 06:09:29;;;;;;;53.72;48.67;;;;;;;-4.74;61.88;95795.94;5098391;28;20185;-65
2021/12/23 06:11:56;;;;;;;59.08;53.63;;;;;;;-4.76;62.13;95792.66;5097805;28;20601;-65
2021/12/23 06:14:23;;;;;;;61.00;55.13;;;;;;;-4.73;62.23;95801.06;5098088;28;20196;-65
2021/12/23 06:16:50;;;;;;;62.70;56.78;;;;;;;-4.68;61.82;95797.69;5098118;28;20260;-64
2021/12/23 06:19:17;;;;;;;60.28;54.40;;;;;;;-4.67;61.79;95794.75;5097110;28;20196;-65
2021/12/23 06:21:45;;;;;;;57.45;52.33;;;;;;;-4.66;61.76;95801.75;5097470;28;20869;-66
2021/12/23 06:24:12;;;;;;;57.95;52.78;;;;;;;-4.62;61.42;95802.09;5097444;28;20193;-66
2021/12/23 06:26:39;;;;;;;58.42;53.28;;;;;;;-4.58;61.35;95800.56;5096889;28;20189;-64
2021/12/23 06:29:05;;;;;;;60.78;55.10;;;;;;;-4.56;61.59;95809.22;5096338;28;20196;-63
2021/12/23 06:31:32;;;;;;;71.80;65.45;;;;;;;-4.55;61.19;95810.03;5097679;28;20196;-63
2021/12/23 06:33:59;;;;;;;90.43;82.25;;;;;;;-4.53;61.24;95808.75;5097437;28;20230;-64
2021/12/23 06:36:26;;;;;;;96.28;87.68;;;;;;;-4.48;61.62;95798.06;5097643;28;20179;-64
2021/12/23 06:38:54;;;;;;;108.80;98.43;;;;;;;-4.45;61.62;95788.69;5097610;28;20698;-64
2021/12/23 06:41:21;;;;;;;101.38;90.75;;;;;;;-4.45;61.18;95786.00;5097701;28;20185;-64
2021/12/23 06:43:48;;;;;;;89.35;80.55;;;;;;;-4.48;61.00;95789.97;5097808;28;20180;-64
2021/12/23 06:46:15;;;;;;;68.68;61.97;;;;;;;-4.51;60.73;95790.47;5099001;28;20192;-64
2021/12/23 06:48:42;;;;;;;62.85;56.65;;;;;;;-4.54;61.02;95785.56;5097387;28;20185;-65
2021/12/23 06:51:08;;;;;;;59.38;53.60;;;;;;;-4.58;61.29;95792.47;5096584;28;20200;-64
2021/12/23 06:53:35;;;;;;;54.38;48.92;;;;;;;-4.53;61.17;95783.69;5097611;28;20216;-65
2021/12/23 06:56:04;;;;;;;54.20;49.00;;;;;;;-4.44;60.69;95788.44;5096580;28;20197;-64
2021/12/23 06:58:32;;;;;;;48.38;43.53;;;;;;;-4.38;60.59;95789.38;5096582;28;20193;-65
2021/12/23 07:00:59;;;;;;;37.90;34.38;;;;;;;-4.35;60.92;95788.88;5096288;28;20208;-64
2021/12/23 07:03:37;;;;;;;42.47;38.70;;;;;;;-4.33;60.46;95791.31;5097359;28;20205;-65
2021/12/23 07:06:06;;;;;;;43.63;39.83;;;;;;;-4.32;60.59;95791.09;5096794;28;20727;-64
2021/12/23 07:08:36;;;;;;;45.35;41.45;;;;;;;-4.23;60.52;95791.50;5096144;28;20426;-67
2021/12/23 07:11:05;;;;;;;49.88;45.35;;;;;;;-4.13;60.45;95795.22;5095864;28;20196;-67
2021/12/23 07:13:32;;;;;;;68.05;61.75;;;;;;;-4.09;60.33;95794.72;5096382;28;20208;-67
2021/12/23 07:16:01;;;;;;;55.08;49.97;;;;;;;-4.07;59.60;95801.47;5095752;28;20197;-67
2021/12/23 07:18:27;;;;;;;51.95;46.97;;;;;;;-4.01;60.19;95794.31;5096975;28;20257;-67
2021/12/23 07:20:54;;;;;;;47.00;42.42;;;;;;;-3.99;59.89;95803.00;5096632;28;20627;-67
2021/12/23 07:23:21;;;;;;;54.05;48.72;;;;;;;-3.91;60.17;95805.28;5095794;28;20199;-66
2021/12/23 07:25:48;;;;;;;50.45;45.58;;;;;;;-3.87;59.95;95806.41;5097051;28;20204;-67
2021/12/23 07:28:16;;;;;;;46.92;42.40;;;;;;;-3.81;60.07;95815.38;5096907;28;20189;-66
2021/12/23 07:30:43;;;;;;;39.15;35.25;;;;;;;-3.75;59.98;95812.53;5095839;28;20199;-66
2021/12/23 07:33:10;;;;;;;33.85;30.65;;;;;;;-3.64;59.28;95817.03;5095449;28;20644;-66
2021/12/23 07:35:36;;;;;;;26.67;24.15;;;;;;;-3.54;59.16;95815.56;5095815;28;20219;-66
2021/12/23 07:38:03;;;;;;;27.20;24.70;;;;;;;-3.44;59.37;95819.25;5096329;28;20189;-66
2021/12/23 07:40:31;;;;;;;24.77;22.55;;;;;;;-3.27;58.82;95813.84;5096450;28;20185;-66
2021/12/23 07:43:09;;;;;;;28.00;25.33;;;;;;;-3.19;58.11;95813.41;5096153;28;20181;-66
2021/12/23 07:45:38;;;;;;;29.33;26.67;;;;;;;-3.11;57.98;95819.47;5096964;28;20200;-66
2021/12/23 07:48:05;;;;;;;28.90;26.20;;;;;;;-3.07;57.96;95820.59;5096100;28;20201;-64
2021/12/23 07:50:32;;;;;;;28.48;25.77;;;;;;;-3.02;58.27;95816.06;5095727;28;20191;-64
2021/12/23 07:52:58;;;;;;;29.10;26.30;;;;;;;-2.89;57.45;95816.78;5095892;28;20177;-64
2021/12/23 07:55:25;;;;;;;32.15;28.98;;;;;;;-2.81;57.42;95814.47;5095640;28;20220;-64
2021/12/23 07:57:52;;;;;;;31.10;28.25;;;;;;;-2.74;57.05;95811.56;5094567;28;20231;-64
2021/12/23 08:00:19;;;;;;;31.83;28.85;;;;;;;-2.68;57.02;95813.28;5095749;28;20470;-64
2021/12/23 08:02:48;;;;;;;32.08;28.95;;;;;;;-2.50;57.12;95812.97;5095639;28;20185;-64
2021/12/23 08:05:15;;;;;;;34.53;31.33;;;;;;;-2.24;56.68;95805.94;5095130;28;20201;-63
2021/12/23 08:07:42;;;;;;;36.28;32.88;;;;;;;-2.15;56.11;95806.28;5095899;28;20519;-64
2021/12/23 08:10:09;;;;;;;38.08;34.45;;;;;;;-2.10;55.52;95813.66;5095972;28;20191;-65
2021/12/23 08:12:36;;;;;;;37.03;33.63;;;;;;;-2.10;54.80;95802.84;5095911;28;20188;-64
2021/12/23 08:15:04;;;;;;;39.45;35.63;;;;;;;-2.09;55.05;95805.28;5094539;28;20223;-64
2021/12/23 08:17:31;;;;;;;38.90;35.30;;;;;;;-1.92;55.27;95804.34;5094490;28;20204;-64
2021/12/23 08:19:59;;;;;;;38.13;34.40;;;;;;;-1.73;55.57;95803.72;5095451;28;20173;-63
2021/12/23 08:22:26;;;;;;;36.08;32.70;;;;;;;-1.62;54.24;95799.22;5095125;28;20531;-64
2021/12/23 08:24:52;;;;;;;38.95;35.25;;;;;;;-1.51;53.72;95810.94;5094448;28;20520;-63
2021/12/23 08:27:20;;;;;;;38.30;34.50;;;;;;;-1.46;54.41;95806.38;5095485;28;20184;-70
2021/12/23 08:29:47;;;;;;;37.85;34.25;;;;;;;-1.36;54.95;95804.84;5095632;28;20517;-64
2021/12/23 08:32:14;;;;;;;44.80;40.72;;;;;;;-1.29;53.88;95798.13;5094368;28;20507;-65
2021/12/23 08:34:41;;;;;;;44.92;40.55;;;;;;;-1.10;54.24;95805.81;5095129;28;20208;-66
2021/12/23 08:37:11;;;;;;;43.33;39.22;;;;;;;-0.98;53.55;95796.44;5094207;28;20200;-68
2021/12/23 08:39:38;;;;;;;42.28;38.20;;;;;;;-0.88;52.64;95794.84;5095213;28;20267;-63
2021/12/23 08:42:05;;;;;;;44.17;39.72;;;;;;;-0.91;52.22;95790.75;5094107;28;20232;-64
2021/12/23 08:44:32;;;;;;;44.72;40.13;;;;;;;-0.79;51.93;95790.56;5094739;28;20208;-65
2021/12/23 08:46:59;;;;;;;47.10;42.60;;;;;;;-0.76;52.40;95793.56;5093962;28;20204;-66
2021/12/23 08:49:26;;;;;;;45.65;41.35;;;;;;;-0.52;52.52;95785.78;5095342;28;20203;-66
2021/12/23 08:51:53;;;;;;;48.38;43.88;;;;;;;-0.38;51.51;95786.13;5094578;28;20440;-67
2021/12/23 08:54:21;;;;;;;48.20;43.45;;;;;;;-0.25;51.11;95771.25;5094920;28;20640;-67
2021/12/23 08:56:48;;;;;;;41.50;37.70;;;;;;;-0.17;51.00;95761.78;5094455;28;20232;-63
2021/12/23 08:59:15;;;;;;;43.70;39.50;;;;;;;-0.12;50.79;95764.50;5094817;28;20204;-64
2021/12/23 09:01:43;;;;;;;48.53;43.97;;;;;;;-0.02;50.57;95757.19;5094900;28;20245;-64
2021/12/23 09:04:09;;;;;;;48.17;43.47;;;;;;;0.07;49.80;95757.47;5094077;28;20196;-69
2021/12/23 09:06:36;;;;;;;46.10;41.80;;;;;;;0.13;50.06;95750.97;5093837;28;20200;-64
2021/12/23 09:09:04;;;;;;;46.00;41.60;;;;;;;0.26;49.95;95737.97;5094382;28;20510;-68
2021/12/23 09:11:32;;;;;;;43.13;39.20;;;;;;;0.28;49.81;95731.16;5095033;28;20188;-65
2021/12/23 09:13:59;;;;;;;42.25;38.33;;;;;;;0.37;49.15;95736.88;5095834;28;20195;-66
2021/12/23 09:16:26;;;;;;;41.17;37.38;;;;;;;0.46;49.62;95716.22;5097910;28;20192;-63
2021/12/23 09:18:53;;;;;;;40.80;36.67;;;;;;;0.48;48.80;95717.59;5097935;28;20188;-62
2021/12/23 09:21:20;;;;;;;37.63;34.20;;;;;;;0.75;49.84;95716.47;5097672;28;20294;-63
2021/12/23 09:23:46;;;;;;;38.97;35.13;;;;;;;0.80;49.42;95715.63;5097639;28;20202;-64
2021/12/23 09:26:13;;;;;;;40.33;36.38;;;;;;;1.06;49.40;95716.38;5097645;28;20197;-63
2021/12/23 09:28:55;;;;;;;40.53;36.70;;;;;;;1.32;48.72;95714.38;5098221;28;20187;-64
2021/12/23 09:34:07;;;;;;;41.33;37.45;;;;;;;1.66;47.96;95709.03;5098191;28;20184;-64
2021/12/23 09:36:34;;;;;;;36.80;33.30;;;;;;;1.73;46.99;95703.28;5097807;28;20188;-64
2021/12/23 09:39:01;;;;;;;39.15;35.60;;;;;;;1.80;47.08;95707.31;5099254;28;20195;-65
2021/12/23 09:41:28;;;;;;;33.38;30.30;;;;;;;1.93;46.39;95706.69;5097409;28;20203;-64
2021/12/23 09:43:58;;;;;;;31.05;28.17;;;;;;;2.03;45.99;95703.06;5097740;28;20207;-64
2021/12/23 09:46:25;;;;;;;32.15;29.23;;;;;;;2.15;45.60;95700.81;5097965;28;20200;-64
2021/12/23 09:48:52;;;;;;;31.83;29.05;;;;;;;2.28;45.40;95693.91;5098441;28;20181;-64
2021/12/23 09:51:21;;;;;;;33.97;30.83;;;;;;;2.35;44.68;95691.66;5097141;28;20201;-67
2021/12/23 09:53:56;;;;;;;31.50;28.27;;;;;;;2.36;44.79;95676.97;5098164;28;20200;-64
2021/12/23 09:56:23;;;;;;;29.25;26.73;;;;;;;2.49;44.10;95666.50;5097252;28;20234;-66
2021/12/23 09:58:50;;;;;;;30.17;27.38;;;;;;;2.56;44.15;95667.78;5098158;28;20181;-67
2021/12/23 10:01:19;;;;;;;31.02;28.13;;;;;;;2.61;43.90;95658.75;5097851;28;20193;-63
2021/12/23 10:03:46;;;;;;;31.42;28.52;;;;;;;2.59;43.45;95659.06;5096801;28;20208;-66
2021/12/23 10:06:13;;;;;;;32.00;28.98;;;;;;;2.61;42.72;95654.13;5098061;28;20180;-67
2021/12/23 10:08:41;;;;;;;32.25;28.95;;;;;;;2.58;42.97;95638.38;5098209;28;20195;-64
2021/12/23 10:11:15;;;;;;;37.47;33.70;;;;;;;2.62;44.00;95635.88;5097053;28;20203;-64
2021/12/23 10:30:29;;;;;;;40.72;36.88;;;;;;;1.72;44.67;95615.47;5097564;28;20177;-64
2021/12/23 10:38:28;;;;;;;37.90;34.28;;;;;;;1.58;45.90;95617.19;5097536;28;20593;-65
2021/12/23 10:40:57;;;;;;;38.38;34.72;;;;;;;1.55;45.33;95615.03;5096693;28;20210;-64
2021/12/23 10:43:27;;;;;;;37.65;33.92;;;;;;;1.54;45.41;95614.22;5097949;28;20184;-64
2021/12/23 10:45:58;;;;;;;34.95;31.45;;;;;;;1.60;46.35;95615.00;5097449;28;20181;-65
2021/12/23 10:48:29;;;;;;;35.28;31.77;;;;;;;1.68;46.91;95600.81;5096740;28;20196;-66
2021/12/23 10:51:03;;;;;;;33.22;30.08;;;;;;;1.69;46.35;95595.06;5097390;28;20219;-66
2021/12/23 10:59:12;;;;;;;33.72;30.33;;;;;;;1.53;46.10;95573.72;5096754;28;20226;-66
2021/12/23 11:02:02;;;;;;;34.47;30.98;;;;;;;1.48;45.39;95580.00;5096304;28;20291;-65
2021/12/23 11:04:35;;;;;;;34.10;30.52;;;;;;;1.46;46.78;95567.81;5096922;28;20328;-65
2021/12/23 11:07:21;;;;;;;33.17;30.00;;;;;;;1.48;46.28;95566.41;5098682;28;20192;-66
2021/12/23 11:10:03;;;;;;;34.33;30.95;;;;;;;1.59;46.80;95567.94;5098764;28;20585;-65
2021/12/23 11:37:52;;;;;;;35.55;31.77;;;;;;;6.03;40.07;95525.19;5095704;28;20564;-65
2021/12/23 11:40:38;;;;;;;33.05;29.30;;;;;;;6.88;38.35;95514.13;5095462;28;20203;-65
2021/12/23 11:43:27;;;;;;;35.65;32.03;;;;;;;8.00;35.80;95500.78;5095150;28;20200;-64
2021/12/23 11:45:55;;;;;;;35.00;31.60;;;;;;;8.53;34.72;95494.81;5096221;28;20211;-64
2021/12/23 11:48:23;;;;;;;32.60;28.50;;;;;;;8.86;33.74;95500.53;5095326;28;20188;-65
2021/12/23 11:51:06;;;;;;;30.75;27.55;;;;;;;9.22;33.77;95496.41;5095280;28;20207;-65
2021/12/23 11:53:36;;;;;;;29.90;27.05;;;;;;;9.14;34.14;95487.06;5095474;28;20629;-65
2021/12/23 11:56:06;;;;;;;31.08;28.15;;;;;;;9.59;32.26;95480.94;5095596;28;20205;-64
2021/12/23 11:58:33;;;;;;;31.55;28.55;;;;;;;10.31;32.36;95484.34;5095447;28;20188;-65
2021/12/23 12:01:06;;;;;;;32.25;29.08;;;;;;;10.89;30.95;95480.72;5095128;28;20192;-65
2021/12/23 12:03:38;;;;;;;34.33;31.20;;;;;;;10.43;30.35;95478.03;5095727;28;20215;-65
2021/12/23 12:06:25;;;;;;;31.35;28.33;;;;;;;10.12;31.89;95482.06;5095970;28;20204;-64
2021/12/23 12:08:56;;;;;;;30.70;27.70;;;;;;;9.80;31.75;95485.63;5096340;28;20192;-64
2021/12/23 12:11:24;;;;;;;30.45;27.45;;;;;;;10.33;30.82;95481.25;5095166;28;20520;-65
2021/12/23 12:13:51;;;;;;;30.80;27.67;;;;;;;10.78;30.79;95481.19;5095294;28;20196;-64
2021/12/23 12:16:29;;;;;;;29.98;26.95;;;;;;;10.52;29.91;95475.19;5095780;28;20204;-65
2021/12/23 12:18:56;;;;;;;29.13;26.20;;;;;;;9.08;31.66;95473.88;5095810;28;20192;-63
2021/12/23 12:21:25;;;;;;;30.50;27.35;;;;;;;7.86;34.07;95471.56;5094759;28;20196;-64
2021/12/23 12:27:01;;;;;;;35.58;31.70;;;;;;;6.41;36.40;95469.13;5126019;27;21068;-71